M I D A S
Marine Information and Data Acquisition System
Tripno 717 of the Zeeleeuw from 2004-05-14 06:12:26 to 2004-05-14 14:22:56
Back to CruiseResearch ActivitiesStationsMapUnderway DataData graphs

EquipmentUnitsComment
TimeDGPSUTC
LatitudeDGPSDM.mWGS84
LongitudeDGPSDM.mWGS84
HeadingGyrodeg 
SOGDGPSknotsSpeed over ground
COGDGPSdegCourse over ground
DepthEcho soundermeters200 kHz
Missing or incorrect values are displayed as -999
Navigation data collected by the RV Zeeleeuw from 2004-05-14 06:12:26 to 2004-05-14 14:22:56
Time Latitude Longitude Heading SOG COG Depth
2004-05-14 06:13:29 51°13.678 2°55.746 71.9 0.9 35 13.1
2004-05-14 06:14:30 51°13.736 2°55.731 327.3 5 322 10
2004-05-14 06:15:30 51°13.824 2°55.648 336.6 6.9 331 10.1
2004-05-14 06:16:29 51°13.934 2°55.564 340.5 7.7 336 10.3
2004-05-14 06:17:28 51°14.053 2°55.474 340.1 8.5 334 11.3
2004-05-14 06:18:30 51°14.196 2°55.356 335.9 10.3 329 11.3
2004-05-14 06:19:29 51°14.327 2°55.158 315.6 11.5 310 10.9
2004-05-14 06:20:29 51°14.477 2°54.927 326.7 13.3 322 10.5
2004-05-14 06:21:30 51°14.664 2°54.722 331.6 13.5 326 10.1
2004-05-14 06:22:29 51°14.847 2°54.524 331.6 13.4 325 10
2004-05-14 06:23:29 51°15.03 2°54.324 332.5 13.3 326 9.1
2004-05-14 06:24:28 51°15.211 2°54.125 332.1 13.6 325 9.7
2004-05-14 06:25:29 51°15.401 2°53.918 332.4 13.5 326 10.4
2004-05-14 06:26:30 51°15.59 2°53.711 332.7 13.6 325 11.3
2004-05-14 06:27:29 51°15.77 2°53.508 332.4 13.4 324 11.8
2004-05-14 06:28:30 51°15.965 2°53.323 343 13.4 339 12.4
2004-05-14 06:29:29 51°16.171 2°53.196 341.6 13.5 336 12.8
2004-05-14 06:30:30 51°16.38 2°53.049 341.1 13.5 336 13
2004-05-14 06:31:30 51°16.584 2°52.903 341.2 13.3 335 12.5
2004-05-14 06:32:28 51°16.776 2°52.759 341.6 13.1 336 10.4
2004-05-14 06:33:29 51°16.985 2°52.644 347.2 13.2 340 10.6
2004-05-14 06:34:30 51°17.196 2°52.535 351.4 13 347 10.4
2004-05-14 06:35:30 51°17.408 2°52.465 354.9 13 349 10.9
2004-05-14 06:36:30 51°17.621 2°52.396 355.3 13.1 349 11.2
2004-05-14 06:37:30 51°17.835 2°52.331 357 13 352 11.2
2004-05-14 06:38:29 51°18.047 2°52.359 17.7 13.2 13 11.5
2004-05-14 06:39:30 51°18.262 2°52.448 19.2 13.2 14 11.7
2004-05-14 06:40:30 51°18.474 2°52.531 18.9 13.2 13 12.1
2004-05-14 06:41:28 51°18.68 2°52.608 18.8 13.1 13 12.5
2004-05-14 06:42:30 51°18.901 2°52.689 19 13.1 14 12.9
2004-05-14 06:43:29 51°19.112 2°52.765 18.2 13.3 11 13.7
2004-05-14 06:44:29 51°19.328 2°52.841 18.5 13.2 12 14.6
2004-05-14 06:45:30 51°19.548 2°52.918 18.2 13.3 12 15.4
2004-05-14 06:46:29 51°19.758 2°53.01 23.8 13.3 19 16
2004-05-14 06:47:29 51°19.969 2°53.12 24.3 13.4 18 16.7
2004-05-14 06:48:30 51°20.185 2°53.231 23.8 13.5 18 17.2
2004-05-14 06:49:30 51°20.398 2°53.34 23.3 13.4 18 17.1
2004-05-14 06:50:28 51°20.604 2°53.447 23.1 13.5 18 17.3
2004-05-14 06:51:30 51°20.824 2°53.565 23 13.5 19 17.4
2004-05-14 06:52:30 51°21.035 2°53.679 22.9 13.4 18 17.6
2004-05-14 06:53:29 51°21.245 2°53.792 23.2 13.6 18 17.6
2004-05-14 06:54:30 51°21.463 2°53.909 23.3 13.6 19 17.8
2004-05-14 06:55:30 51°21.677 2°54.024 23.6 13.6 19 17.8
2004-05-14 06:56:33 51°21.901 2°54.144 23 13.5 19 18.6
2004-05-14 06:57:34 51°22.12 2°54.26 23.2 13.6 19 19.3
2004-05-14 06:58:34 51°22.334 2°54.377 23.2 13.6 19 19.6
2004-05-14 06:59:35 51°22.55 2°54.494 23.6 13.3 19 20.9
2004-05-14 07:00:34 51°22.758 2°54.605 23.5 13.4 19 22.2
2004-05-14 07:01:34 51°22.969 2°54.718 23.8 13.2 20 21
2004-05-14 07:02:34 51°23.173 2°54.858 29.9 13.4 25 20.3
2004-05-14 07:03:34 51°23.376 2°55.011 29.4 13.6 25 20.3
2004-05-14 07:04:34 51°23.579 2°55.164 29.7 13.5 25 18
2004-05-14 07:05:35 51°23.787 2°55.319 29.4 13.5 24 20.3
2004-05-14 07:06:34 51°23.988 2°55.471 29.8 13.6 26 22
2004-05-14 07:07:34 51°24.195 2°55.624 29.5 13.8 25 23.1
2004-05-14 07:08:34 51°24.402 2°55.777 28.8 13.8 24 24.9
2004-05-14 07:09:35 51°24.614 2°55.934 28.9 13.9 25 23.6
2004-05-14 07:10:34 51°24.82 2°56.094 29.4 13.9 26 25.9
2004-05-14 07:11:34 51°25.027 2°56.254 29.9 13.7 27 25.7
2004-05-14 07:12:34 51°25.231 2°56.41 29.2 13.5 26 24.9
2004-05-14 07:13:34 51°25.433 2°56.563 29.2 13.3 25 22.9
2004-05-14 07:14:35 51°25.635 2°56.721 29.7 13.3 25 20.2
2004-05-14 07:15:35 51°25.834 2°56.875 29.2 13.3 26 17.4
2004-05-14 07:16:34 51°26.029 2°57.029 30.4 13.4 29 16.1
2004-05-14 07:17:35 51°26.206 2°57.258 47.5 13.5 44 18
2004-05-14 07:18:35 51°26.368 2°57.507 45.7 13.6 44 18.1
2004-05-14 07:19:34 51°26.53 2°57.75 45.6 13.6 43 18.5
2004-05-14 07:20:34 51°26.695 2°57.995 45.6 13.5 43 19
2004-05-14 07:21:35 51°26.863 2°58.243 45.7 13.5 42 15.8
2004-05-14 07:22:34 51°27.026 2°58.483 45.2 13.5 43 16.7
2004-05-14 07:23:34 51°27.192 2°58.723 45.1 13.4 42 19.5
2004-05-14 07:24:35 51°27.362 2°58.969 45 13.6 42 17.5
2004-05-14 07:25:35 51°27.531 2°59.21 45 13.5 42 21.1
2004-05-14 07:26:34 51°27.696 2°59.45 45.4 13.8 42 20.6
2004-05-14 07:27:34 51°27.865 2°59.694 45.2 13.7 42 19.4
2004-05-14 07:28:35 51°28.036 2°59.943 45 13.7 43 20.2
2004-05-14 07:29:34 51°28.204 3°0.185 45.5 13.8 42 20
2004-05-14 07:30:34 51°28.374 3°0.43 45.3 13.9 42 21.7
2004-05-14 07:31:35 51°28.547 3°0.682 45.8 13.8 42 21.9
2004-05-14 07:32:35 51°28.718 3°0.929 45.1 13.8 43 22.4
2004-05-14 07:33:34 51°28.886 3°1.175 45.3 13.9 42 22.7
2004-05-14 07:34:34 51°29.042 3°1.448 55.5 14 53 24
2004-05-14 07:35:34 51°29.185 3°1.741 55 14 52 24.4
2004-05-14 07:36:34 51°29.324 3°2.041 62 14 60 25.1
2004-05-14 07:37:35 51°29.432 3°2.381 66.7 14.1 63 24.7
2004-05-14 07:38:34 51°29.535 3°2.711 66.8 14.1 64 24.5
2004-05-14 07:39:35 51°29.644 3°3.049 65.5 14.1 62 24.8
2004-05-14 07:40:35 51°29.753 3°3.378 65.7 14 61 24.3
2004-05-14 07:41:34 51°29.86 3°3.702 65.1 14.1 61 24.3
2004-05-14 07:42:34 51°29.969 3°4.034 65 14 62 23.2
2004-05-14 07:43:34 51°30.077 3°4.363 65.3 13.8 62 24.1
2004-05-14 07:44:33 51°30.183 3°4.687 65.6 14 62 23.9
2004-05-14 07:45:35 51°30.294 3°5.028 65.3 13.9 61 24
2004-05-14 07:46:34 51°30.402 3°5.352 64.4 14 62 23.1
2004-05-14 07:47:35 51°30.512 3°5.688 65.3 14 61 23.3
2004-05-14 07:48:35 51°30.62 3°6.018 65.5 14.1 62 24
2004-05-14 07:49:34 51°30.727 3°6.344 65.4 14 62 24.9
2004-05-14 07:50:35 51°30.838 3°6.679 65.4 14 62 24.9
2004-05-14 07:51:35 51°30.949 3°7.009 65.2 14 61 24.6
2004-05-14 07:52:35 51°31.058 3°7.337 65.2 13.9 61 25
2004-05-14 07:53:34 51°31.168 3°7.662 65.6 14.2 61 24.2
2004-05-14 07:54:35 51°31.274 3°8.005 68.5 14.2 65 24.2
2004-05-14 07:55:34 51°31.372 3°8.343 68.3 14.4 64 23
2004-05-14 07:56:35 51°31.473 3°8.693 68.3 14.3 65 23.7
2004-05-14 07:57:35 51°31.575 3°9.039 67.9 14.4 64 23.7
2004-05-14 07:58:35 51°31.675 3°9.384 68.1 14.3 64 24
2004-05-14 07:59:35 51°31.776 3°9.726 68.2 14.2 64 22.8
2004-05-14 08:00:35 51°31.877 3°10.069 68.8 14.2 65 22.3
2004-05-14 08:01:35 51°31.977 3°10.414 68.2 14.3 64 22.9
2004-05-14 08:02:35 51°32.078 3°10.758 68.2 14.3 63 23.1
2004-05-14 08:03:34 51°32.177 3°11.097 67.5 14.4 66 22.8
2004-05-14 08:04:34 51°32.277 3°11.444 68.3 14.3 66 22.8
2004-05-14 08:05:34 51°32.378 3°11.79 68.4 14.3 65 22.8
2004-05-14 08:06:34 51°32.478 3°12.134 67.9 14.3 65 22.5
2004-05-14 08:07:35 51°32.582 3°12.486 67.9 14.3 65 22.2
2004-05-14 08:08:35 51°32.683 3°12.833 67.9 14.3 64 22.1
2004-05-14 08:09:34 51°32.785 3°13.172 66.7 14.4 64 22.4
2004-05-14 08:10:34 51°32.895 3°13.514 66 14.4 64 21.9
2004-05-14 08:11:42 51°33.02 3°13.902 66.2 14.5 63 21.8
2004-05-14 08:12:43 51°33.134 3°14.253 65.9 14.6 62 21.4
2004-05-14 08:13:42 51°33.242 3°14.593 66.6 14.5 63 21
2004-05-14 08:14:41 51°33.35 3°14.933 66.6 14.5 63 20.6
2004-05-14 08:15:42 51°33.461 3°15.283 66.2 14.5 63 20.3
2004-05-14 08:16:42 51°33.57 3°15.628 66.3 14.5 62 19.5
2004-05-14 08:17:42 51°33.679 3°15.972 66.2 14.3 63 19.3
2004-05-14 08:18:42 51°33.786 3°16.314 66.5 14.4 63 17.7
2004-05-14 08:19:42 51°33.887 3°16.661 69.6 14.4 65 18.2
2004-05-14 08:20:43 51°33.983 3°17.02 69 14.5 67 16.8
2004-05-14 08:21:43 51°34.077 3°17.378 69.9 14.6 67 16.3
2004-05-14 08:22:43 51°34.173 3°17.734 69.4 14.5 66 16.2
2004-05-14 08:23:42 51°34.269 3°18.083 67.2 14.5 65 15.7
2004-05-14 08:24:41 51°34.375 3°18.425 65.9 14.7 63 16.5
2004-05-14 08:25:42 51°34.483 3°18.778 65.8 14.4 63 15.8
2004-05-14 08:26:42 51°34.59 3°19.125 66.8 14.4 64 16.1
2004-05-14 08:27:42 51°34.696 3°19.469 66 14.4 62 15.9
2004-05-14 08:28:42 51°34.803 3°19.812 66.2 14.4 63 15.3
2004-05-14 08:29:42 51°34.909 3°20.156 66.1 14.3 64 14.4
2004-05-14 08:30:42 51°35.015 3°20.502 66.3 14.5 63 13.5
2004-05-14 08:31:42 51°35.121 3°20.851 66 14.5 63 12
2004-05-14 08:32:43 51°35.228 3°21.208 65.9 14.7 66 10.6
2004-05-14 08:33:43 51°35.334 3°21.562 66.5 14.7 64 11.1
2004-05-14 08:34:43 51°35.44 3°21.918 66.2 14.8 64 11.5
2004-05-14 08:35:43 51°35.546 3°22.273 65.8 14.7 64 11.7
2004-05-14 08:36:43 51°35.653 3°22.629 66.1 14.7 64 11.9
2004-05-14 08:37:42 51°35.757 3°22.978 66.9 14.8 65 13
2004-05-14 08:38:42 51°35.847 3°23.343 77.6 14.7 76 13
2004-05-14 08:39:43 51°35.941 3°23.71 67.4 14.6 66 12.9
2004-05-14 08:40:43 51°35.995 3°23.969 71.8 7 71 12.8
2004-05-14 08:41:43 51°36.036 3°24.092 49.1 4.3 58 13
2004-05-14 08:42:42 51°36.071 3°24.176 43.5 3.5 56 13.5
2004-05-14 08:43:42 51°36.1 3°24.248 41.9 2.9 57 13.5
2004-05-14 08:44:43 51°36.125 3°24.312 41.5 2.6 58 13.8
2004-05-14 08:45:43 51°36.145 3°24.37 45.3 2.4 64 13.7
2004-05-14 08:46:43 51°36.162 3°24.426 49.5 2.2 63 13.7
2004-05-14 08:47:42 51°36.176 3°24.481 54.4 2.2 69 13.7
2004-05-14 08:48:40 51°36.187 3°24.534 60.8 2 70 13.4
2004-05-14 08:49:43 51°36.196 3°24.591 66.3 2.1 77 13.3
2004-05-14 08:50:43 51°36.204 3°24.644 73.4 2.1 82 13.2
2004-05-14 08:51:42 51°36.208 3°24.698 80.6 2.1 80 12.6
2004-05-14 08:52:42 51°36.212 3°24.754 85 2.1 84 12.8
2004-05-14 08:53:42 51°36.225 3°24.844 72.1 4.1 71 13.9
2004-05-14 08:54:42 51°36.252 3°24.95 64.2 4.2 68 14
2004-05-14 08:55:42 51°36.275 3°25.054 75.1 4.1 72 13.6
2004-05-14 08:56:40 51°36.288 3°25.157 87.2 4.1 81 11.8
2004-05-14 08:57:43 51°36.297 3°25.266 85.5 3.9 82 13.4
2004-05-14 08:58:42 51°36.307 3°25.366 82.7 3.8 75 11.8
2004-05-14 08:59:41 51°36.319 3°25.464 81.5 3.8 78 13.3
2004-05-14 09:00:43 51°36.332 3°25.566 79.9 3.8 77 11.1
2004-05-14 09:01:42 51°36.345 3°25.662 79.4 3.7 79 13.3
2004-05-14 09:02:41 51°36.359 3°25.756 79.9 3.7 79 12.4
2004-05-14 09:03:42 51°36.372 3°25.854 81.2 3.7 80 12.3
2004-05-14 09:04:43 51°36.385 3°25.953 79.8 3.7 83 12.8
2004-05-14 09:05:43 51°36.399 3°26.049 80.5 3.7 79 12.3
2004-05-14 09:06:40 51°36.409 3°26.141 88.1 3.7 82 13.1
2004-05-14 09:07:43 51°36.415 3°26.245 92.9 3.7 91 11.9
2004-05-14 09:08:43 51°36.42 3°26.344 92.9 3.7 86 13.2
2004-05-14 09:09:42 51°36.424 3°26.441 92.1 3.7 88 13.2
2004-05-14 09:10:42 51°36.431 3°26.539 90.7 3.7 83 12.3
2004-05-14 09:11:43 51°36.438 3°26.639 90 3.7 85 13.2
2004-05-14 09:12:43 51°36.444 3°26.738 91.4 3.7 84 13.4
2004-05-14 09:13:42 51°36.452 3°26.834 88 3.8 82 12.6
2004-05-14 09:14:42 51°36.462 3°26.932 83.9 3.7 79 13.2
2004-05-14 09:15:42 51°36.474 3°27.03 83.4 3.7 78 13.2
2004-05-14 09:16:43 51°36.486 3°27.13 85.6 3.7 77 13.4
2004-05-14 09:17:43 51°36.494 3°27.224 89.9 3.5 85 13
2004-05-14 09:18:43 51°36.501 3°27.314 91.2 3.3 84 13.2
2004-05-14 09:19:43 51°36.507 3°27.403 90.9 3.3 83 13.2
2004-05-14 09:20:42 51°36.514 3°27.488 90.2 3.2 77 12.9
2004-05-14 09:21:42 51°36.52 3°27.573 91 3.2 81 13
2004-05-14 09:22:43 51°36.527 3°27.659 91.4 3.2 82 13.2
2004-05-14 09:23:42 51°36.535 3°27.743 90.3 3.2 80 13.1
2004-05-14 09:24:41 51°36.542 3°27.827 89.5 3.2 84 13.3
2004-05-14 09:25:43 51°36.549 3°27.916 90 3.3 84 12.7
2004-05-14 09:26:43 51°36.556 3°28.002 88.8 3.2 80 13.3
2004-05-14 09:27:40 51°36.565 3°28.082 85 3.2 81 13.2
2004-05-14 09:28:43 51°36.575 3°28.177 86.2 3.8 79 12.6
2004-05-14 09:29:41 51°36.585 3°28.279 86.3 4.2 81 13
2004-05-14 09:30:43 51°36.599 3°28.398 84.4 4.5 78 12.2
2004-05-14 09:31:40 51°36.614 3°28.509 81.7 4.1 77 11.7
2004-05-14 09:32:43 51°36.631 3°28.614 76.8 3.6 74 11.1
2004-05-14 09:33:41 51°36.646 3°28.698 75.6 3.3 74 10.3
2004-05-14 09:34:43 51°36.663 3°28.787 79.5 3.5 78 11.2
2004-05-14 09:35:43 51°36.678 3°28.88 78.5 3.6 76 11.2
2004-05-14 09:36:42 51°36.695 3°28.971 74.3 3.5 70 11
2004-05-14 09:37:43 51°36.714 3°29.062 73.3 3.6 73 10.6
2004-05-14 09:38:43 51°36.733 3°29.153 74 3.5 72 11.1
2004-05-14 09:39:43 51°36.751 3°29.244 76.1 3.6 74 10.8
2004-05-14 09:40:42 51°36.767 3°29.335 79.4 3.6 80 10.9
2004-05-14 09:41:40 51°36.779 3°29.424 85.5 3.5 79 11.5
2004-05-14 09:42:43 51°36.789 3°29.52 87.9 3.5 80 10.9
2004-05-14 09:43:41 51°36.797 3°29.611 87.8 3.5 80 12.3
2004-05-14 09:44:43 51°36.805 3°29.707 86.6 3.5 81 12.4
2004-05-14 09:45:43 51°36.813 3°29.799 85.7 3.5 85 12.2
2004-05-14 09:46:43 51°36.823 3°29.891 85.7 3.5 76 12.7
2004-05-14 09:47:42 51°36.831 3°29.981 85.5 3.5 80 13
2004-05-14 09:48:40 51°36.839 3°30.069 86 3.5 85 13
2004-05-14 09:49:43 51°36.849 3°30.164 84.9 3.4 79 13
2004-05-14 09:50:42 51°36.859 3°30.253 85.5 3.4 82 12.8
2004-05-14 09:51:42 51°36.867 3°30.344 86.4 3.4 82 12.7
2004-05-14 09:52:43 51°36.874 3°30.437 89.6 3.4 81 12.5
2004-05-14 09:53:43 51°36.88 3°30.528 90.4 3.4 82 12.8
2004-05-14 09:54:40 51°36.884 3°30.614 92.3 3.4 86 12.9
2004-05-14 09:55:45 51°36.89 3°30.714 91.3 3.4 88 13
2004-05-14 09:56:44 51°36.896 3°30.803 90.5 3.4 88 13
2004-05-14 09:57:44 51°36.902 3°30.893 90.1 3.4 88 12.9
2004-05-14 09:58:44 51°36.907 3°30.984 90.1 3.4 84 12.9
2004-05-14 09:59:45 51°36.913 3°31.077 90 3.5 85 12.9
2004-05-14 10:00:44 51°36.917 3°31.169 97.5 3.5 90 12.8
2004-05-14 10:01:44 51°36.915 3°31.26 102.9 3.4 91 12.7
2004-05-14 10:02:44 51°36.911 3°31.352 106.5 3.5 92 12.6
2004-05-14 10:03:45 51°36.904 3°31.444 108.1 3.4 95 12.7
2004-05-14 10:04:45 51°36.898 3°31.536 107.6 3.4 97 12.7
2004-05-14 10:05:44 51°36.892 3°31.625 106.8 3.5 94 12.8
2004-05-14 10:06:45 51°36.885 3°31.716 111.8 3.4 98 12.8
2004-05-14 10:07:44 51°36.873 3°31.8 119.6 3.2 104 12.8
2004-05-14 10:08:44 51°36.858 3°31.882 123.1 3.2 106 12.8
2004-05-14 10:09:44 51°36.84 3°31.976 119.4 3.9 105 12.7
2004-05-14 10:10:45 51°36.827 3°32.072 110.3 3.4 97 12.7
2004-05-14 10:11:44 51°36.822 3°32.155 101.4 3 92 12.7
2004-05-14 10:12:50 51°36.82 3°32.236 107.4 2.6 94 12.7
2004-05-14 10:13:50 51°36.814 3°32.301 121.2 2.3 101 12.6
2004-05-14 10:14:50 51°36.804 3°32.355 135.8 2 110 12.5
2004-05-14 10:15:48 51°36.794 3°32.4 150.1 1.8 113 12.6
2004-05-14 10:16:50 51°36.782 3°32.441 165 1.6 117 12.6
2004-05-14 10:17:50 51°36.77 3°32.473 178.6 1.2 122 12.7
2004-05-14 10:18:50 51°36.759 3°32.499 191.5 1.1 122 12.7
2004-05-14 10:19:49 51°36.75 3°32.522 202.5 1 122 12.7
2004-05-14 10:20:50 51°36.743 3°32.54 214.8 0.6 121 12.7
2004-05-14 10:21:50 51°36.737 3°32.557 224.5 0.7 119 12.7
2004-05-14 10:22:49 51°36.732 3°32.572 233.6 0.7 117 12.8
2004-05-14 10:23:50 51°36.729 3°32.585 243.4 0.5 107 12.8
2004-05-14 10:24:50 51°36.727 3°32.599 252.7 0.5 103 12.8
2004-05-14 10:25:50 51°36.726 3°32.611 260.6 0.4 95 12.8
2004-05-14 10:26:50 51°36.726 3°32.624 266.3 0.4 88 12.8
2004-05-14 10:27:50 51°36.726 3°32.636 272.9 0.5 75 12.7
2004-05-14 10:28:50 51°36.728 3°32.648 278.5 0.5 71 12.7
2004-05-14 10:29:50 51°36.73 3°32.661 278.8 0.5 93 12.8
2004-05-14 10:30:50 51°36.732 3°32.674 278.1 0.4 85 12.7
2004-05-14 10:31:50 51°36.733 3°32.686 277.3 0.5 73 12.7
2004-05-14 10:32:50 51°36.736 3°32.668 275.9 2.3 276 12.7
2004-05-14 10:33:50 51°36.729 3°32.489 268.7 10.9 265 12.5
2004-05-14 10:34:50 51°36.712 3°32.156 268.9 12.9 266 12.7
2004-05-14 10:35:50 51°36.697 3°31.811 269.9 12.9 266 13
2004-05-14 10:36:50 51°36.685 3°31.464 270.3 12.9 267 12.9
2004-05-14 10:37:48 51°36.673 3°31.13 270 12.9 266 12.2
2004-05-14 10:38:50 51°36.66 3°30.775 269.5 12.9 267 12
2004-05-14 10:39:50 51°36.65 3°30.429 270.3 13 267 12.4
2004-05-14 10:40:50 51°36.628 3°30.086 264.8 12.8 261 11.9
2004-05-14 10:41:50 51°36.598 3°29.745 264.6 12.8 261 10.5
2004-05-14 10:42:50 51°36.568 3°29.405 264.7 12.8 263 11.3
2004-05-14 10:43:50 51°36.539 3°29.064 265 12.8 262 11.2
2004-05-14 10:44:50 51°36.509 3°28.721 265.2 12.9 262 12
2004-05-14 10:45:50 51°36.48 3°28.38 264.8 12.9 263 12.3
2004-05-14 10:46:50 51°36.452 3°28.04 264.9 12.8 264 12.5
2004-05-14 10:47:50 51°36.424 3°27.698 265.8 12.9 264 12.5
2004-05-14 10:48:50 51°36.397 3°27.356 265.4 12.9 263 12.4
2004-05-14 10:49:50 51°36.371 3°27.014 265.2 12.7 263 12.4
2004-05-14 10:50:50 51°36.346 3°26.671 265.5 12.8 261 12.7
2004-05-14 10:51:50 51°36.306 3°26.333 259.6 12.9 256 12.3
2004-05-14 10:52:50 51°36.264 3°25.996 260.5 12.9 260 12.5
2004-05-14 10:53:50 51°36.222 3°25.658 261.2 12.9 258 12.4
2004-05-14 10:54:50 51°36.181 3°25.319 259.5 12.8 258 12.1
2004-05-14 10:55:50 51°36.142 3°24.98 260.5 13.1 261 13.2
2004-05-14 10:56:49 51°36.103 3°24.646 260.4 12.9 259 12.4
2004-05-14 10:57:50 51°36.064 3°24.3 260.5 13 261 13.3
2004-05-14 10:58:50 51°36.024 3°23.959 260.2 13 259 12.9
2004-05-14 10:59:50 51°35.984 3°23.617 260.5 13.1 261 13
2004-05-14 11:00:50 51°35.944 3°23.275 259.8 13.1 260 12.8
2004-05-14 11:01:50 51°35.903 3°22.932 260.6 13.1 256 13
2004-05-14 11:02:50 51°35.862 3°22.588 260.5 13 257 12.3
2004-05-14 11:03:50 51°35.822 3°22.247 260.9 12.9 258 11.8
2004-05-14 11:04:50 51°35.783 3°21.905 260.6 13.1 259 12.1
2004-05-14 11:05:50 51°35.744 3°21.563 261 13.1 260 12.4
2004-05-14 11:06:50 51°35.706 3°21.223 259.4 13 261 12.5
2004-05-14 11:07:50 51°35.668 3°20.882 260.1 12.8 259 14.5
2004-05-14 11:08:50 51°35.632 3°20.544 259.9 13 259 15.3
2004-05-14 11:09:50 51°35.586 3°20.208 255.5 12.9 253 15.9
2004-05-14 11:10:50 51°35.529 3°19.875 254.5 12.9 254 16.9
2004-05-14 11:11:50 51°35.474 3°19.541 255.6 12.9 255 18.1
2004-05-14 11:12:50 51°35.415 3°19.206 255.4 13 254 18.1
2004-05-14 11:13:50 51°35.358 3°18.872 255.4 13 255 17.3
2004-05-14 11:14:50 51°35.301 3°18.534 255.4 12.9 255 16.4
2004-05-14 11:15:50 51°35.254 3°18.195 260.6 13 261 19.6
2004-05-14 11:16:50 51°35.217 3°17.853 260.2 12.9 259 21.4
2004-05-14 11:17:50 51°35.181 3°17.513 260.3 12.9 260 23
2004-05-14 11:18:50 51°35.144 3°17.175 260.1 12.9 262 24.2
2004-05-14 11:19:50 51°35.108 3°16.84 260.5 12.8 261 26.2
2004-05-14 11:20:50 51°35.106 3°16.495 271.4 12.9 272 28.3
2004-05-14 11:21:50 51°35.111 3°16.15 271.2 12.8 271 30.1
2004-05-14 11:22:50 51°35.116 3°15.806 271 12.9 272 32.4
2004-05-14 11:23:50 51°35.112 3°15.463 266.2 12.8 266 32.9
2004-05-14 11:24:50 51°35.094 3°15.124 265.3 12.7 265 31
2004-05-14 11:25:50 51°35.078 3°14.783 265.3 12.8 265 32.2
2004-05-14 11:26:50 51°35.062 3°14.443 265.3 12.8 267 31.1
2004-05-14 11:27:50 51°35.046 3°14.103 265.6 12.8 267 29.9
2004-05-14 11:28:50 51°35.03 3°13.763 265.5 12.7 267 28.9
2004-05-14 11:29:50 51°35.015 3°13.422 265.2 12.8 264 28.1
2004-05-14 11:30:50 51°34.998 3°13.076 265.2 13.1 265 28.2
2004-05-14 11:31:50 51°34.989 3°12.729 270.3 13.1 272 28.1
2004-05-14 11:32:50 51°34.997 3°12.381 270.3 13.1 271 28
2004-05-14 11:33:50 51°35.005 3°12.033 271.1 12.9 271 27.9
2004-05-14 11:34:50 51°35.013 3°11.688 270.5 12.9 273 27.4
2004-05-14 11:35:50 51°35.02 3°11.346 270.4 12.8 273 27.9
2004-05-14 11:36:50 51°35.028 3°11.004 270.1 12.9 273 27.7
2004-05-14 11:37:50 51°35.037 3°10.662 270.5 12.8 273 27.5
2004-05-14 11:38:50 51°35.045 3°10.319 269.9 12.8 272 26.6
2004-05-14 11:39:50 51°35.054 3°9.975 270.4 12.9 273 27.3
2004-05-14 11:40:50 51°35.062 3°9.63 270.5 12.9 272 26
2004-05-14 11:41:50 51°35.067 3°9.281 270.7 13.1 272 24.9
2004-05-14 11:42:50 51°35.072 3°8.929 270.7 13.1 272 23.1
2004-05-14 11:43:50 51°35.077 3°8.578 270.8 13.2 271 21.4
2004-05-14 11:44:50 51°35.081 3°8.227 270 13.2 270 18.8
2004-05-14 11:45:50 51°35.086 3°7.876 269.9 13.1 270 20.9
2004-05-14 11:46:50 51°35.091 3°7.525 270.1 13.3 271 21.1
2004-05-14 11:47:50 51°35.095 3°7.171 270.3 13.4 270 21.2
2004-05-14 11:48:50 51°35.102 3°6.815 269.9 13.4 272 17.7
2004-05-14 11:49:50 51°35.109 3°6.457 269.8 13.4 273 18.7
2004-05-14 11:50:50 51°35.114 3°6.099 270.1 13.4 271 18.9
2004-05-14 11:51:50 51°35.12 3°5.739 269.5 13.6 273 19.3
2004-05-14 11:52:50 51°35.117 3°5.382 266.1 13.4 267 22.8
2004-05-14 11:53:50 51°35.108 3°5.024 267.3 13.3 268 25.1
2004-05-14 11:54:50 51°35.1 3°4.668 267.8 13.3 267 25.3
2004-05-14 11:55:50 51°35.093 3°4.314 266.8 13.2 268 27.6
2004-05-14 11:56:50 51°35.079 3°3.961 264.3 13.1 265 27.2
2004-05-14 11:57:50 51°35.061 3°3.611 263.6 13.1 267 26.8
2004-05-14 11:58:50 51°35.044 3°3.262 263.6 13.1 266 25.7
2004-05-14 11:59:49 51°35.031 3°2.917 264.9 13.1 266 22.6
2004-05-14 12:00:50 51°34.993 3°2.574 257.1 12.9 257 20.4
2004-05-14 12:01:50 51°34.96 3°2.229 260.1 13.1 262 20.9
2004-05-14 12:02:50 51°34.928 3°1.88 260.5 13.3 261 20.5
2004-05-14 12:03:50 51°34.894 3°1.53 260.6 13.3 262 18.5
2004-05-14 12:04:50 51°34.838 3°1.231 241.9 8.1 242 18.8
2004-05-14 12:05:50 51°34.787 3°1.142 207.8 2.8 210 19.3
2004-05-14 12:06:48 51°34.756 3°1.127 190.8 1.6 184 17.5
2004-05-14 12:07:49 51°34.724 3°1.12 202.9 2.2 207 18.7
2004-05-14 12:08:50 51°34.706 3°1.056 250.2 3.1 260 18.8
2004-05-14 12:09:50 51°34.699 3°0.969 246.5 3.3 262 18.6
2004-05-14 12:10:50 51°34.688 3°0.886 246 3.1 256 19.5
2004-05-14 12:11:56 51°34.678 3°0.796 245.5 3.1 258 19.3
2004-05-14 12:12:57 51°34.667 3°0.714 245.3 3.1 260 20.7
2004-05-14 12:13:56 51°34.655 3°0.635 245.5 2.9 253 19.7
2004-05-14 12:14:57 51°34.642 3°0.559 239.7 2.8 250 20.7
2004-05-14 12:15:57 51°34.625 3°0.49 233.1 2.8 244 19.6
2004-05-14 12:16:56 51°34.604 3°0.428 230.2 2.7 239 20.7
2004-05-14 12:17:57 51°34.582 3°0.363 231.4 2.8 243 20.8
2004-05-14 12:18:57 51°34.562 3°0.299 233.1 2.7 239 19.9
2004-05-14 12:19:57 51°34.541 3°0.234 232.7 2.7 242 21.1
2004-05-14 12:20:56 51°34.521 3°0.169 233.2 2.8 244 22
2004-05-14 12:21:57 51°34.499 3°0.104 229.3 2.7 242 21.6
2004-05-14 12:22:57 51°34.474 3°0.045 228.4 2.7 240 22.5
2004-05-14 12:23:57 51°34.45 2°59.985 228.9 2.6 234 22.1
2004-05-14 12:24:57 51°34.426 2°59.923 229.1 2.7 234 22.5
2004-05-14 12:25:56 51°34.402 2°59.863 229.3 2.8 240 22.1
2004-05-14 12:26:57 51°34.378 2°59.801 228.5 2.7 239 21.3
2004-05-14 12:27:57 51°34.353 2°59.741 228.4 2.7 236 21.8
2004-05-14 12:28:56 51°34.329 2°59.68 229.3 2.8 241 21
2004-05-14 12:29:56 51°34.305 2°59.619 228.9 2.6 229 23.5
2004-05-14 12:30:57 51°34.28 2°59.556 230 2.8 240 23.5
2004-05-14 12:31:56 51°34.255 2°59.494 229.9 2.8 238 22.3
2004-05-14 12:32:57 51°34.23 2°59.43 229.3 2.8 238 21.7
2004-05-14 12:33:57 51°34.205 2°59.369 228.9 2.8 235 23.6
2004-05-14 12:34:56 51°34.18 2°59.307 229.7 2.8 236 23.1
2004-05-14 12:35:57 51°34.154 2°59.243 228.9 2.9 237 22.8
2004-05-14 12:36:56 51°34.128 2°59.181 229.2 2.9 238 23.4
2004-05-14 12:37:57 51°34.102 2°59.115 228.6 2.8 240 21.7
2004-05-14 12:38:57 51°34.075 2°59.052 229 2.9 233 23.4
2004-05-14 12:39:57 51°34.048 2°58.989 230 2.9 238 19.4
2004-05-14 12:40:57 51°34.027 2°58.92 238.6 2.9 248 23.2
2004-05-14 12:41:57 51°34.01 2°58.843 243 3.2 250 24.6
2004-05-14 12:42:56 51°33.994 2°58.761 245.2 3.4 254 23.2
2004-05-14 12:44:02 51°33.978 2°58.679 240.7 2.4 253 22.1
2004-05-14 12:45:01 51°33.967 2°58.63 231.6 1.6 242 23.6
2004-05-14 12:46:02 51°33.951 2°58.591 220.7 3 220 24.6
2004-05-14 12:47:01 51°33.86 2°58.569 187.2 8.3 183 22.4
2004-05-14 12:48:01 51°33.71 2°58.498 202.6 9.8 199 20.4
2004-05-14 12:49:02 51°33.55 2°58.41 201 10.1 197 19
2004-05-14 12:50:02 51°33.391 2°58.325 200.4 10 196 19.5
2004-05-14 12:51:02 51°33.272 2°58.244 214.5 5.4 216 18.3
2004-05-14 12:52:02 51°33.235 2°58.158 241.7 3.2 251 18.8
2004-05-14 12:53:02 51°33.23 2°58.086 256.3 2.5 274 20.2
2004-05-14 12:54:02 51°33.233 2°58.017 257 3.8 261 20.4
2004-05-14 12:55:01 51°33.151 2°57.921 203.5 10.3 203 18.8
2004-05-14 12:56:02 51°32.956 2°57.808 201.6 12.7 200 18.9
2004-05-14 12:57:02 51°32.756 2°57.689 203.5 12.8 201 18.9
2004-05-14 12:58:02 51°32.555 2°57.569 203.6 12.8 200 19.2
2004-05-14 12:59:02 51°32.355 2°57.446 202.7 13 199 18.5
2004-05-14 13:00:02 51°32.155 2°57.321 205 12.8 200 17.3
2004-05-14 13:01:02 51°31.955 2°57.194 203.6 13 200 14.7
2004-05-14 13:02:02 51°31.753 2°57.07 203.1 13 201 19.3
2004-05-14 13:03:02 51°31.548 2°56.95 203.6 13.2 199 28.1
2004-05-14 13:04:02 51°31.34 2°56.835 203.4 13.4 199 32.2
2004-05-14 13:05:02 51°31.133 2°56.72 203.6 13.1 198 31.8
2004-05-14 13:06:02 51°30.926 2°56.603 203.7 13.4 200 33.1
2004-05-14 13:07:02 51°30.718 2°56.484 203.2 13.4 199 31.8
2004-05-14 13:08:02 51°30.508 2°56.361 204.5 13.4 202 31.3
2004-05-14 13:09:02 51°30.297 2°56.238 203.3 13.6 200 31.3
2004-05-14 13:10:02 51°30.087 2°56.108 203.9 13.4 203 29.8
2004-05-14 13:11:02 51°29.876 2°55.981 202 13.4 199 28.8
2004-05-14 13:12:02 51°29.665 2°55.86 202.5 13.4 199 28.1
2004-05-14 13:13:02 51°29.454 2°55.737 203 13.7 201 27.3
2004-05-14 13:14:02 51°29.244 2°55.611 204.2 13.3 199 26.3
2004-05-14 13:15:02 51°29.032 2°55.482 203.2 13.6 200 24.5
2004-05-14 13:16:02 51°28.822 2°55.354 202.5 13.5 199 22.3
2004-05-14 13:17:01 51°28.617 2°55.226 203.1 13.5 200 22.4
2004-05-14 13:18:02 51°28.405 2°55.093 203.7 13.2 202 21.8
2004-05-14 13:19:02 51°28.196 2°54.962 203.2 13.5 202 22
2004-05-14 13:20:02 51°27.985 2°54.83 201.8 13.6 202 24.7
2004-05-14 13:21:02 51°27.775 2°54.7 202.5 13.4 201 25.8
2004-05-14 13:22:02 51°27.563 2°54.567 202 14 201 27.5
2004-05-14 13:23:02 51°27.352 2°54.433 203.5 13.6 202 28.1
2004-05-14 13:24:02 51°27.142 2°54.299 202.8 13.5 201 25.5
2004-05-14 13:25:02 51°26.931 2°54.166 203.9 13.4 201 23.3
2004-05-14 13:26:02 51°26.722 2°54.038 202.7 13.3 201 31.1
2004-05-14 13:27:02 51°26.513 2°53.907 203.9 13.4 202 32.4
2004-05-14 13:28:02 51°26.296 2°53.818 189.4 13.7 186 31.8
2004-05-14 13:29:01 51°26.074 2°53.784 188.1 13.5 185 29.8
2004-05-14 13:30:02 51°25.843 2°53.75 187.7 13.8 185 26.8
2004-05-14 13:31:02 51°25.615 2°53.727 185 13.9 183 24.3
2004-05-14 13:32:02 51°25.386 2°53.7 186.7 14.1 183 20.5
2004-05-14 13:33:02 51°25.156 2°53.674 185.8 13.8 184 19.8
2004-05-14 13:34:02 51°24.928 2°53.645 184.8 13.7 183 19.2
2004-05-14 13:35:02 51°24.7 2°53.625 182.4 13.9 183 18.2
2004-05-14 13:36:02 51°24.472 2°53.612 183.6 13.6 182 17.4
2004-05-14 13:37:02 51°24.251 2°53.537 201.5 13.8 201 17.4
2004-05-14 13:38:02 51°24.034 2°53.408 202.4 14 201 20.1
2004-05-14 13:39:02 51°23.816 2°53.285 200.8 14 198 21
2004-05-14 13:40:02 51°23.595 2°53.168 200.3 14.1 197 20.9
2004-05-14 13:41:02 51°23.376 2°53.051 200.7 14 197 19.2
2004-05-14 13:42:02 51°23.156 2°52.938 200.8 13.8 198 21.4
2004-05-14 13:43:02 51°22.938 2°52.824 200 13.9 198 22.9
2004-05-14 13:44:01 51°22.724 2°52.713 201.2 13.9 198 22.4
2004-05-14 13:45:02 51°22.503 2°52.597 201.1 13.9 198 22.3
2004-05-14 13:46:02 51°22.284 2°52.489 197.9 13.7 192 23.6
2004-05-14 13:47:02 51°22.06 2°52.421 190.3 13.7 186 23.6
2004-05-14 13:48:02 51°21.828 2°52.433 177.9 14.1 177 22.4
2004-05-14 13:49:02 51°21.597 2°52.446 179.2 14.1 178 19.7
2004-05-14 13:50:02 51°21.365 2°52.454 180 13.9 179 17.1
2004-05-14 13:51:02 51°21.132 2°52.458 180.3 14.1 178 15.5
2004-05-14 13:52:02 51°20.9 2°52.461 179.7 13.8 179 14.4
2004-05-14 13:53:02 51°20.668 2°52.461 179.9 13.9 179 13.9
2004-05-14 13:54:02 51°20.439 2°52.463 181 13.8 182 15.4
2004-05-14 13:55:02 51°20.211 2°52.464 180.5 13.6 179 15.7
2004-05-14 13:56:02 51°19.982 2°52.461 180.7 13.8 181 15.6
2004-05-14 13:57:02 51°19.75 2°52.456 180.7 14 182 15.4
2004-05-14 13:58:02 51°19.517 2°52.454 178.8 14.4 180 14.8
2004-05-14 13:59:02 51°19.282 2°52.448 181.5 14.1 182 14.1
2004-05-14 14:00:02 51°19.047 2°52.443 180.7 14.1 180 12.9
2004-05-14 14:01:00 51°18.82 2°52.442 180.8 13.8 180 11.8
2004-05-14 14:02:02 51°18.579 2°52.443 180.2 13.8 180 11.1
2004-05-14 14:03:02 51°18.348 2°52.441 180.7 13.9 181 10.6
2004-05-14 14:04:02 51°18.115 2°52.435 179.6 14.2 181 10.2
2004-05-14 14:05:02 51°17.883 2°52.437 178.8 14.3 180 9.9
2004-05-14 14:06:02 51°17.65 2°52.437 179.2 14 179 9.7
2004-05-14 14:07:02 51°17.417 2°52.436 179.4 13.8 179 9.8
2004-05-14 14:08:02 51°17.189 2°52.479 165.9 13.9 165 9.3
2004-05-14 14:09:02 51°16.968 2°52.573 165.5 13.9 164 9.2
2004-05-14 14:10:02 51°16.747 2°52.663 166.9 13.7 167 9
2004-05-14 14:11:02 51°16.519 2°52.749 165.9 14.1 167 11.1
2004-05-14 14:12:02 51°16.292 2°52.834 166.8 14 168 11.9
2004-05-14 14:13:02 51°16.074 2°52.95 159 13.6 161 11.7
2004-05-14 14:14:02 51°15.861 2°53.086 157.4 14 157 11.1
2004-05-14 14:15:02 51°15.648 2°53.225 156.9 13.6 158 10.7
2004-05-14 14:16:02 51°15.449 2°53.401 147 13.3 149 10.1
2004-05-14 14:17:02 51°15.257 2°53.593 143.4 13.4 145 9.2
2004-05-14 14:18:02 51°15.076 2°53.806 144.2 13.7 145 9
2004-05-14 14:19:02 51°14.895 2°54.02 140.8 13.3 142 8.6
2004-05-14 14:20:02 51°14.73 2°54.261 138.6 13.6 139 9.3
2004-05-14 14:21:02 51°14.582 2°54.528 128.4 13.6 128 9.3
2004-05-14 14:22:02 51°14.452 2°54.813 123.4 12.9 127 10.1